This is the latest recevied weather packets stored in our database for station/object WK7G. If no packets are shown the sender has not sent any weather packets the latest 10 day(s).
| Time | Temp. | Humidity | Pressure | Rain* | Wind** | Luminosity | Snow |
|---|---|---|---|---|---|---|---|
| 1778073723 | -1.67° C | 65% | 1011.9 hPa | 0 mm | - | 52 W/m² | - |
| 1778073421 | -1.67° C | 65% | 1012.1 hPa | 0 mm | - | 47 W/m² | - |
| 1778073117 | -2.78° C | 67% | 1011.7 hPa | 0 mm | - | 41 W/m² | - |
| 1778072814 | -3.33° C | 68% | 1011.8 hPa | 0 mm | - | 37 W/m² | - |
| 1778072511 | -3.89° C | 70% | 1011.8 hPa | 0 mm | - | 34 W/m² | - |
| 1778072209 | -4.44° C | 71% | 1011.8 hPa | 0 mm | - | 30 W/m² | - |
| 1778071907 | -4.44° C | 71% | 1011.8 hPa | 0 mm | - | 27 W/m² | - |
| 1778071604 | -4.44° C | 72% | 1011.6 hPa | 0 mm | - | 23 W/m² | - |
| 1778071302 | -5° C | 73% | 1011.8 hPa | 0 mm | - | 19 W/m² | - |
| 1778070999 | -5° C | 72% | 1011.6 hPa | 0 mm | - | 14 W/m² | - |
| 1778070698 | -5° C | 71% | 1011.8 hPa | 0 mm | - | 11 W/m² | - |
| 1778070394 | -5° C | 72% | 1011.5 hPa | 0 mm | - | 9 W/m² | - |
| 1778070092 | -5° C | 71% | 1011.6 hPa | 0 mm | - | 6 W/m² | - |
| 1778069790 | -5° C | 72% | 1010.9 hPa | 0 mm | - | 3 W/m² | - |
| 1778069486 | -5° C | 72% | 1011.2 hPa | 0 mm | - | 2 W/m² | - |
| 1778069184 | -5° C | 72% | 1011.1 hPa | 0 mm | - | 0 W/m² | - |
| 1778068881 | -5° C | 71% | 1011.2 hPa | 0 mm | - | 0 W/m² | - |
| 1778068580 | -4.44° C | 70% | 1011.2 hPa | 0 mm | - | 0 W/m² | - |
| 1778068277 | -5° C | 71% | 1011.2 hPa | 0 mm | - | 0 W/m² | - |
| 1778067974 | -5° C | 71% | 1011.2 hPa | 0 mm | - | 0 W/m² | - |
| 1778067672 | -5° C | 71% | 1011.1 hPa | 0 mm | - | 0 W/m² | - |
| 1778067370 | -5° C | 72% | 1011.1 hPa | 0 mm | - | 0 W/m² | - |
| 1778067067 | -5° C | 72% | 1011 hPa | 0 mm | - | 0 W/m² | - |
| 1778066763 | -4.44° C | 70% | 1011.3 hPa | 0 mm | - | 0 W/m² | - |
| 1778066461 | -4.44° C | 70% | 1011.2 hPa | 0 mm | - | 0 W/m² | - |
* Rain latest hour (hover to see other rain measurements)
** Current wind speed in m/s (hover to see current wind gust speed)